LFLCLFMU

Guest
Details From LFLC - Clermont-Ferrand_Auvergne
To LFMU - Beziers Vias
Flight Number -
Tags generated
Created
Modified
Stats Distance 148 nm / 275 km
Max Altitude 16,700 ft / 5,090 m
Waypoints 3
Social Downloads 0
Likes 0
Share VATSIM

Download

Looking for another format? Having issues loading an existing format? Contact us
Advertisement - Login to hide

Notes

Basic altitude profile: - Ascent Rate: 2500ft/min - Ascent Speed: 250kts - Cruise Altitude: 35000ft - Cruise Speed: 420kts - Descent Rate: 1500ft/min - Descent Speed: 250kts Options: - Use NATs: no - Use PACOTS: no - Use low airways: no - Use high airways: yes

Route

LFLC MOKDI LFMU

ID Type Via Altitude Latitude Longitude Leg Dist Tot Dist Heading (true) Name
O LFLC APT - 0 ft / 0 m 45.78671˚ 3.16997˚ - 0 nm - Clermont-Ferrand_Auvergne
MOKDI FIX - 16,700 ft / 5,090 m 44.95694˚ 3.16694˚ 49 nm 49 nm 180° / 180° -
O LFMU APT - 0 ft / 0 m 43.32342˚ 3.35357˚ 98 nm 148 nm 175° / 175° Beziers Vias

Altitude Profile

Advertisement - Login to hide

LFLC

Details ICAO LFLC (CFE)
Name Clermont-Ferrand_Auvergne
Region France
Timezone Europe/Paris (UTC+1.0)
Stats Elevation 1,089 ft / 332 m (AMSL)
Location 45.786712° 3.169967°
Runways 1
Magnetic Variation 0.981° E

METAR

LFLC 171800Z AUTO 12002KT 9999 FEW029 SCT039 OVC046 02/00 Q1029 BECMG 35010KT

Decode

TAF

TAF AMD LFLC 171808Z 1718/1815 18005KT 9999 FEW027 BKN040 BECMG 1804/1806 BKN015 OVC036 TEMPO 1806/1809 -RA BECMG 1809/1812 28010KT BECMG 1813/1815 RA BKN010

Decode

Departure Runways

ID Width Length Bearing (true) Bearing (mag) Surface Threshold Offset Overrun Length
08 148 ft / 45 m 9,878 ft / 3,011 m 81.95° 80.97° Asphalt 0 ft / 0 m 0 ft / 0 m
26 148 ft / 45 m 9,878 ft / 3,011 m 261.98° 261.00° Asphalt 476 ft / 145 m 0 ft / 0 m

LFMU

Details ICAO LFMU (BZR)
Name Beziers Vias
Region France
Timezone Europe/Paris (UTC+1.0)
Stats Elevation 54 ft / 16 m (AMSL)
Location 43.323422° 3.353573°
Runways 1
Magnetic Variation 1.101° E

METAR

LFMU 171800Z AUTO 36007KT CAVOK 06/00 Q1029 NOSIG

Decode

TAF

TAF AMD LFMU 171400Z 1715/1815 31015KT CAVOK BECMG 1720/1723 29005KT BECMG 1807/1810 29015G30KT BKN030

Decode

Destination Runways

ID Width Length Bearing (true) Bearing (mag) Surface Threshold Offset Overrun Length
10 115 ft / 35 m 5,955 ft / 1,815 m 94.20° 93.10° Asphalt 459 ft / 140 m 0 ft / 0 m
28 115 ft / 35 m 5,955 ft / 1,815 m 274.22° 273.12° Asphalt 0 ft / 0 m 0 ft / 0 m

Approach Navaids

Runway Type Ident Frequency Range Bearing (true) Bearing (mag) Slope Elevation
10 Localiser ZR 109.35 MHz 18 nm / 33 km 94.52° 93.42° - 50 ft / 15 m (AMSL)
10 Glidescope ZR 109.35 MHz 10 nm / 19 km 94.21° 93.11° 3.00° 92 ft / 28 m (AMSL)
10 DME ZR 109.35 MHz 18 nm / 33 km - - - 92 ft / 28 m (AMSL)